sensor_id;sensor_type;location;lat;lon;timestamp;P1;durP1;ratioP1;P2;durP2;ratioP2
74912;SDS011;63878;55.624;37.304;2023-05-07T00:05:45;3.37;;;2.50;;
74912;SDS011;63878;55.624;37.304;2023-05-07T00:15:45;2.47;;;2.22;;
74912;SDS011;63878;55.624;37.304;2023-05-07T00:25:46;5.85;;;2.40;;
74912;SDS011;63878;55.624;37.304;2023-05-07T00:35:46;4.83;;;2.57;;
74912;SDS011;63878;55.624;37.304;2023-05-07T00:45:47;3.85;;;2.20;;
74912;SDS011;63878;55.624;37.304;2023-05-07T00:55:48;4.63;;;2.63;;
74912;SDS011;63878;55.624;37.304;2023-05-07T01:05:49;3.38;;;2.67;;
74912;SDS011;63878;55.624;37.304;2023-05-07T01:15:51;5.15;;;2.80;;
74912;SDS011;63878;55.624;37.304;2023-05-07T01:25:52;3.00;;;1.80;;
74912;SDS011;63878;55.624;37.304;2023-05-07T01:35:53;3.90;;;2.50;;
74912;SDS011;63878;55.624;37.304;2023-05-07T01:45:55;4.40;;;2.58;;
74912;SDS011;63878;55.624;37.304;2023-05-07T01:55:57;2.78;;;2.25;;
74912;SDS011;63878;55.624;37.304;2023-05-07T02:05:57;4.93;;;2.92;;
74912;SDS011;63878;55.624;37.304;2023-05-07T02:15:58;5.73;;;3.03;;
74912;SDS011;63878;55.624;37.304;2023-05-07T02:25:59;5.23;;;2.67;;
74912;SDS011;63878;55.624;37.304;2023-05-07T02:36:06;2.92;;;1.92;;
74912;SDS011;63878;55.624;37.304;2023-05-07T02:46:10;5.07;;;3.45;;
74912;SDS011;63878;55.624;37.304;2023-05-07T02:56:10;7.15;;;4.40;;
74912;SDS011;63878;55.624;37.304;2023-05-07T03:06:11;6.15;;;3.78;;
74912;SDS011;63878;55.624;37.304;2023-05-07T03:16:11;6.55;;;3.30;;
74912;SDS011;63878;55.624;37.304;2023-05-07T03:26:12;3.33;;;2.47;;
74912;SDS011;63878;55.624;37.304;2023-05-07T03:36:12;4.28;;;2.70;;
74912;SDS011;63878;55.624;37.304;2023-05-07T03:46:13;3.30;;;2.88;;
74912;SDS011;63878;55.624;37.304;2023-05-07T03:56:13;4.00;;;2.28;;
74912;SDS011;63878;55.624;37.304;2023-05-07T04:06:15;4.23;;;2.73;;
74912;SDS011;63878;55.624;37.304;2023-05-07T04:16:16;5.43;;;2.72;;
74912;SDS011;63878;55.624;37.304;2023-05-07T04:26:17;3.63;;;2.53;;
74912;SDS011;63878;55.624;37.304;2023-05-07T04:36:17;4.87;;;2.53;;
74912;SDS011;63878;55.624;37.304;2023-05-07T04:46:18;5.20;;;3.00;;
74912;SDS011;63878;55.624;37.304;2023-05-07T04:56:18;4.17;;;2.77;;
74912;SDS011;63878;55.624;37.304;2023-05-07T05:06:19;4.43;;;2.20;;
74912;SDS011;63878;55.624;37.304;2023-05-07T05:16:19;5.82;;;2.40;;
74912;SDS011;63878;55.624;37.304;2023-05-07T05:26:20;2.38;;;1.83;;
74912;SDS011;63878;55.624;37.304;2023-05-07T05:36:21;2.92;;;1.85;;
74912;SDS011;63878;55.624;37.304;2023-05-07T05:46:21;4.20;;;1.65;;
74912;SDS011;63878;55.624;37.304;2023-05-07T05:56:22;2.60;;;1.60;;
74912;SDS011;63878;55.624;37.304;2023-05-07T06:06:22;1.93;;;1.43;;
74912;SDS011;63878;55.624;37.304;2023-05-07T06:16:24;2.15;;;1.60;;
74912;SDS011;63878;55.624;37.304;2023-05-07T06:26:25;2.50;;;1.33;;
74912;SDS011;63878;55.624;37.304;2023-05-07T06:36:25;1.65;;;1.40;;
74912;SDS011;63878;55.624;37.304;2023-05-07T06:46:26;1.35;;;1.25;;
74912;SDS011;63878;55.624;37.304;2023-05-07T06:56:27;2.55;;;1.38;;
74912;SDS011;63878;55.624;37.304;2023-05-07T07:06:28;2.10;;;1.30;;
74912;SDS011;63878;55.624;37.304;2023-05-07T07:16:28;2.05;;;1.20;;
74912;SDS011;63878;55.624;37.304;2023-05-07T07:26:29;1.25;;;1.05;;
74912;SDS011;63878;55.624;37.304;2023-05-07T07:36:29;1.45;;;1.02;;
74912;SDS011;63878;55.624;37.304;2023-05-07T07:46:30;1.48;;;1.08;;
74912;SDS011;63878;55.624;37.304;2023-05-07T07:56:31;1.42;;;1.17;;
74912;SDS011;63878;55.624;37.304;2023-05-07T08:06:32;1.15;;;1.05;;
74912;SDS011;63878;55.624;37.304;2023-05-07T08:16:33;1.30;;;0.90;;
74912;SDS011;63878;55.624;37.304;2023-05-07T08:26:33;0.98;;;0.80;;
74912;SDS011;63878;55.624;37.304;2023-05-07T08:36:34;1.37;;;0.80;;
74912;SDS011;63878;55.624;37.304;2023-05-07T08:46:35;3.10;;;1.40;;
74912;SDS011;63878;55.624;37.304;2023-05-07T08:56:35;1.97;;;1.20;;
74912;SDS011;63878;55.624;37.304;2023-05-07T09:06:36;1.60;;;1.43;;
74912;SDS011;63878;55.624;37.304;2023-05-07T09:16:37;2.25;;;1.13;;
74912;SDS011;63878;55.624;37.304;2023-05-07T09:26:37;2.60;;;1.43;;
74912;SDS011;63878;55.624;37.304;2023-05-07T09:36:38;2.50;;;1.00;;
74912;SDS011;63878;55.624;37.304;2023-05-07T09:46:39;1.88;;;1.10;;
74912;SDS011;63878;55.624;37.304;2023-05-07T09:56:43;1.63;;;1.00;;
74912;SDS011;63878;55.624;37.304;2023-05-07T10:06:45;5.05;;;1.30;;
74912;SDS011;63878;55.624;37.304;2023-05-07T10:16:47;1.80;;;1.10;;
74912;SDS011;63878;55.624;37.304;2023-05-07T10:26:49;1.55;;;1.00;;
74912;SDS011;63878;55.624;37.304;2023-05-07T10:36:52;3.08;;;0.88;;
74912;SDS011;63878;55.624;37.304;2023-05-07T10:47:07;3.72;;;1.13;;
74912;SDS011;63878;55.624;37.304;2023-05-07T11:07:34;4.20;;;1.30;;
74912;SDS011;63878;55.624;37.304;2023-05-07T11:17:51;1.55;;;1.20;;
74912;SDS011;63878;55.624;37.304;2023-05-07T11:27:53;2.47;;;1.27;;
74912;SDS011;63878;55.624;37.304;2023-05-07T11:37:57;2.25;;;1.20;;
74912;SDS011;63878;55.624;37.304;2023-05-07T11:47:59;3.40;;;1.20;;
74912;SDS011;63878;55.624;37.304;2023-05-07T11:58:04;2.47;;;0.93;;
74912;SDS011;63878;55.624;37.304;2023-05-07T12:08:04;3.60;;;1.60;;
74912;SDS011;63878;55.624;37.304;2023-05-07T12:18:05;2.15;;;1.05;;
74912;SDS011;63878;55.624;37.304;2023-05-07T12:28:07;1.50;;;1.10;;
74912;SDS011;63878;55.624;37.304;2023-05-07T12:38:08;2.38;;;1.30;;
74912;SDS011;63878;55.624;37.304;2023-05-07T12:48:10;2.35;;;1.40;;
74912;SDS011;63878;55.624;37.304;2023-05-07T12:58:15;1.60;;;1.23;;
74912;SDS011;63878;55.624;37.304;2023-05-07T13:08:23;2.72;;;1.30;;
74912;SDS011;63878;55.624;37.304;2023-05-07T13:18:49;2.42;;;1.20;;
74912;SDS011;63878;55.624;37.304;2023-05-07T13:28:50;1.80;;;1.20;;
74912;SDS011;63878;55.624;37.304;2023-05-07T13:38:50;3.70;;;2.20;;
74912;SDS011;63878;55.624;37.304;2023-05-07T13:48:51;6.17;;;1.73;;
74912;SDS011;63878;55.624;37.304;2023-05-07T13:58:52;3.77;;;1.43;;
74912;SDS011;63878;55.624;37.304;2023-05-07T14:08:52;1.77;;;1.38;;
74912;SDS011;63878;55.624;37.304;2023-05-07T14:18:53;3.13;;;1.25;;
74912;SDS011;63878;55.624;37.304;2023-05-07T14:28:53;3.33;;;1.42;;
74912;SDS011;63878;55.624;37.304;2023-05-07T14:38:54;2.25;;;1.55;;
74912;SDS011;63878;55.624;37.304;2023-05-07T14:48:55;2.20;;;1.40;;
74912;SDS011;63878;55.624;37.304;2023-05-07T14:58:57;1.10;;;1.00;;
74912;SDS011;63878;55.624;37.304;2023-05-07T15:08:57;1.58;;;0.98;;
74912;SDS011;63878;55.624;37.304;2023-05-07T15:18:58;1.73;;;1.13;;
74912;SDS011;63878;55.624;37.304;2023-05-07T15:28:58;2.63;;;1.30;;
74912;SDS011;63878;55.624;37.304;2023-05-07T15:38:59;2.15;;;1.50;;
74912;SDS011;63878;55.624;37.304;2023-05-07T15:49:01;1.77;;;1.30;;
74912;SDS011;63878;55.624;37.304;2023-05-07T15:59:02;1.63;;;1.48;;
74912;SDS011;63878;55.624;37.304;2023-05-07T16:09:03;2.35;;;1.35;;
74912;SDS011;63878;55.624;37.304;2023-05-07T16:19:04;2.67;;;1.30;;
74912;SDS011;63878;55.624;37.304;2023-05-07T16:29:04;1.37;;;1.13;;
74912;SDS011;63878;55.624;37.304;2023-05-07T16:39:05;1.53;;;1.03;;
74912;SDS011;63878;55.624;37.304;2023-05-07T16:49:06;1.63;;;1.27;;
74912;SDS011;63878;55.624;37.304;2023-05-07T16:59:06;3.07;;;1.33;;
74912;SDS011;63878;55.624;37.304;2023-05-07T17:09:07;4.13;;;1.70;;
74912;SDS011;63878;55.624;37.304;2023-05-07T17:19:08;3.17;;;1.58;;
74912;SDS011;63878;55.624;37.304;2023-05-07T17:29:08;3.28;;;1.83;;
74912;SDS011;63878;55.624;37.304;2023-05-07T17:39:09;4.60;;;2.67;;
74912;SDS011;63878;55.624;37.304;2023-05-07T17:49:09;4.78;;;2.67;;
74912;SDS011;63878;55.624;37.304;2023-05-07T17:59:10;4.03;;;3.00;;
74912;SDS011;63878;55.624;37.304;2023-05-07T18:09:10;3.90;;;3.13;;
74912;SDS011;63878;55.624;37.304;2023-05-07T18:19:11;6.93;;;3.70;;
74912;SDS011;63878;55.624;37.304;2023-05-07T18:29:11;7.70;;;4.30;;
74912;SDS011;63878;55.624;37.304;2023-05-07T18:39:12;8.75;;;4.95;;
74912;SDS011;63878;55.624;37.304;2023-05-07T18:49:13;6.53;;;3.77;;
74912;SDS011;63878;55.624;37.304;2023-05-07T18:59:14;8.50;;;4.10;;
74912;SDS011;63878;55.624;37.304;2023-05-07T19:09:15;8.37;;;3.50;;
74912;SDS011;63878;55.624;37.304;2023-05-07T19:19:16;9.30;;;3.53;;
74912;SDS011;63878;55.624;37.304;2023-05-07T19:29:17;7.70;;;3.28;;
74912;SDS011;63878;55.624;37.304;2023-05-07T19:39:17;7.55;;;3.80;;
74912;SDS011;63878;55.624;37.304;2023-05-07T19:49:17;7.43;;;4.00;;
74912;SDS011;63878;55.624;37.304;2023-05-07T19:59:18;12.35;;;5.43;;
74912;SDS011;63878;55.624;37.304;2023-05-07T20:09:19;13.83;;;4.80;;
74912;SDS011;63878;55.624;37.304;2023-05-07T20:19:19;7.18;;;3.58;;
74912;SDS011;63878;55.624;37.304;2023-05-07T20:29:21;8.80;;;3.80;;
74912;SDS011;63878;55.624;37.304;2023-05-07T20:39:21;7.47;;;3.60;;
74912;SDS011;63878;55.624;37.304;2023-05-07T20:49:22;9.93;;;3.55;;
74912;SDS011;63878;55.624;37.304;2023-05-07T20:59:23;7.70;;;4.03;;
74912;SDS011;63878;55.624;37.304;2023-05-07T21:09:24;9.50;;;4.53;;
74912;SDS011;63878;55.624;37.304;2023-05-07T21:19:25;10.15;;;5.43;;
74912;SDS011;63878;55.624;37.304;2023-05-07T21:29:25;9.65;;;4.88;;
74912;SDS011;63878;55.624;37.304;2023-05-07T21:39:26;10.32;;;5.50;;
74912;SDS011;63878;55.624;37.304;2023-05-07T21:49:26;11.52;;;4.82;;
74912;SDS011;63878;55.624;37.304;2023-05-07T21:59:27;8.68;;;4.68;;
74912;SDS011;63878;55.624;37.304;2023-05-07T22:09:29;10.20;;;5.10;;
74912;SDS011;63878;55.624;37.304;2023-05-07T22:19:29;12.25;;;5.07;;
74912;SDS011;63878;55.624;37.304;2023-05-07T22:29:30;8.25;;;5.35;;
74912;SDS011;63878;55.624;37.304;2023-05-07T22:39:31;9.57;;;5.23;;
74912;SDS011;63878;55.624;37.304;2023-05-07T22:49:35;11.55;;;5.88;;
74912;SDS011;63878;55.624;37.304;2023-05-07T22:59:35;8.57;;;5.20;;
74912;SDS011;63878;55.624;37.304;2023-05-07T23:09:36;11.98;;;5.97;;
74912;SDS011;63878;55.624;37.304;2023-05-07T23:19:36;8.07;;;4.53;;
74912;SDS011;63878;55.624;37.304;2023-05-07T23:29:37;6.93;;;4.85;;
74912;SDS011;63878;55.624;37.304;2023-05-07T23:39:37;10.65;;;5.90;;
74912;SDS011;63878;55.624;37.304;2023-05-07T23:49:38;11.20;;;6.47;;
74912;SDS011;63878;55.624;37.304;2023-05-07T23:59:38;12.70;;;7.30;;
